sensor_id;sensor_type;location;lat;lon;timestamp;P1;durP1;ratioP1;P2;durP2;ratioP2
26756;SDS011;23848;49.798;10.228;2023-04-23T00:00:42;2.63;;;1.70;;
26756;SDS011;23848;49.798;10.228;2023-04-23T00:03:11;3.03;;;2.00;;
26756;SDS011;23848;49.798;10.228;2023-04-23T00:05:41;4.78;;;1.98;;
26756;SDS011;23848;49.798;10.228;2023-04-23T00:08:11;4.65;;;1.98;;
26756;SDS011;23848;49.798;10.228;2023-04-23T00:10:40;3.00;;;1.80;;
26756;SDS011;23848;49.798;10.228;2023-04-23T00:13:08;3.85;;;2.13;;
26756;SDS011;23848;49.798;10.228;2023-04-23T00:15:37;4.05;;;2.00;;
26756;SDS011;23848;49.798;10.228;2023-04-23T00:18:07;3.88;;;2.03;;
26756;SDS011;23848;49.798;10.228;2023-04-23T00:20:35;5.32;;;2.22;;
26756;SDS011;23848;49.798;10.228;2023-04-23T00:23:04;3.17;;;1.88;;
26756;SDS011;23848;49.798;10.228;2023-04-23T00:25:32;3.13;;;1.90;;
26756;SDS011;23848;49.798;10.228;2023-04-23T00:28:00;3.80;;;2.20;;
26756;SDS011;23848;49.798;10.228;2023-04-23T00:30:29;4.15;;;1.95;;
26756;SDS011;23848;49.798;10.228;2023-04-23T00:32:59;3.00;;;1.98;;
26756;SDS011;23848;49.798;10.228;2023-04-23T00:35:27;2.70;;;2.08;;
26756;SDS011;23848;49.798;10.228;2023-04-23T00:37:56;2.92;;;1.90;;
26756;SDS011;23848;49.798;10.228;2023-04-23T00:40:24;3.55;;;2.10;;
26756;SDS011;23848;49.798;10.228;2023-04-23T00:42:52;2.90;;;1.80;;
26756;SDS011;23848;49.798;10.228;2023-04-23T00:45:23;4.03;;;2.17;;
26756;SDS011;23848;49.798;10.228;2023-04-23T00:47:52;3.78;;;2.13;;
26756;SDS011;23848;49.798;10.228;2023-04-23T00:50:22;3.70;;;2.30;;
26756;SDS011;23848;49.798;10.228;2023-04-23T00:52:51;3.67;;;2.40;;
26756;SDS011;23848;49.798;10.228;2023-04-23T00:55:19;3.55;;;2.33;;
26756;SDS011;23848;49.798;10.228;2023-04-23T00:57:47;3.90;;;2.30;;
26756;SDS011;23848;49.798;10.228;2023-04-23T01:00:16;3.58;;;2.20;;
26756;SDS011;23848;49.798;10.228;2023-04-23T01:02:48;3.53;;;2.25;;
26756;SDS011;23848;49.798;10.228;2023-04-23T01:05:19;3.63;;;2.20;;
26756;SDS011;23848;49.798;10.228;2023-04-23T01:07:50;4.97;;;2.25;;
26756;SDS011;23848;49.798;10.228;2023-04-23T01:10:19;3.80;;;2.30;;
26756;SDS011;23848;49.798;10.228;2023-04-23T01:12:47;3.60;;;2.25;;
26756;SDS011;23848;49.798;10.228;2023-04-23T01:15:17;3.17;;;2.17;;
26756;SDS011;23848;49.798;10.228;2023-04-23T01:17:45;5.97;;;2.75;;
26756;SDS011;23848;49.798;10.228;2023-04-23T01:20:13;2.88;;;1.90;;
26756;SDS011;23848;49.798;10.228;2023-04-23T01:22:43;4.18;;;2.40;;
26756;SDS011;23848;49.798;10.228;2023-04-23T01:25:12;4.20;;;2.38;;
26756;SDS011;23848;49.798;10.228;2023-04-23T01:27:40;2.90;;;2.03;;
26756;SDS011;23848;49.798;10.228;2023-04-23T01:30:09;3.95;;;2.60;;
26756;SDS011;23848;49.798;10.228;2023-04-23T01:32:38;4.03;;;2.78;;
26756;SDS011;23848;49.798;10.228;2023-04-23T01:35:08;6.25;;;2.53;;
26756;SDS011;23848;49.798;10.228;2023-04-23T01:37:38;3.67;;;2.13;;
26756;SDS011;23848;49.798;10.228;2023-04-23T01:40:09;3.13;;;2.00;;
26756;SDS011;23848;49.798;10.228;2023-04-23T01:42:38;3.38;;;2.30;;
26756;SDS011;23848;49.798;10.228;2023-04-23T01:45:07;3.25;;;2.30;;
26756;SDS011;23848;49.798;10.228;2023-04-23T01:47:36;3.30;;;2.25;;
26756;SDS011;23848;49.798;10.228;2023-04-23T01:50:05;4.45;;;2.55;;
26756;SDS011;23848;49.798;10.228;2023-04-23T01:52:34;4.28;;;2.42;;
26756;SDS011;23848;49.798;10.228;2023-04-23T01:55:03;4.63;;;2.58;;
26756;SDS011;23848;49.798;10.228;2023-04-23T01:57:33;3.50;;;2.50;;
26756;SDS011;23848;49.798;10.228;2023-04-23T02:00:03;4.78;;;2.40;;
26756;SDS011;23848;49.798;10.228;2023-04-23T02:02:34;3.88;;;2.55;;
26756;SDS011;23848;49.798;10.228;2023-04-23T02:05:03;4.47;;;2.83;;
26756;SDS011;23848;49.798;10.228;2023-04-23T02:07:36;5.40;;;2.97;;
26756;SDS011;23848;49.798;10.228;2023-04-23T02:10:05;5.22;;;2.78;;
26756;SDS011;23848;49.798;10.228;2023-04-23T02:12:36;4.80;;;2.60;;
26756;SDS011;23848;49.798;10.228;2023-04-23T02:15:06;4.75;;;2.28;;
26756;SDS011;23848;49.798;10.228;2023-04-23T02:17:35;4.45;;;2.60;;
26756;SDS011;23848;49.798;10.228;2023-04-23T02:20:06;4.18;;;2.53;;
26756;SDS011;23848;49.798;10.228;2023-04-23T02:22:36;3.72;;;2.58;;
26756;SDS011;23848;49.798;10.228;2023-04-23T02:25:04;4.60;;;2.63;;
26756;SDS011;23848;49.798;10.228;2023-04-23T02:27:38;3.40;;;2.22;;
26756;SDS011;23848;49.798;10.228;2023-04-23T02:30:07;5.20;;;3.30;;
26756;SDS011;23848;49.798;10.228;2023-04-23T02:32:38;4.60;;;2.55;;
26756;SDS011;23848;49.798;10.228;2023-04-23T02:35:09;4.85;;;3.20;;
26756;SDS011;23848;49.798;10.228;2023-04-23T02:37:39;4.88;;;3.00;;
26756;SDS011;23848;49.798;10.228;2023-04-23T02:40:10;5.55;;;3.13;;
26756;SDS011;23848;49.798;10.228;2023-04-23T02:42:46;5.40;;;3.10;;
26756;SDS011;23848;49.798;10.228;2023-04-23T02:45:14;4.25;;;3.00;;
26756;SDS011;23848;49.798;10.228;2023-04-23T02:47:44;5.72;;;2.95;;
26756;SDS011;23848;49.798;10.228;2023-04-23T02:50:13;4.70;;;3.10;;
26756;SDS011;23848;49.798;10.228;2023-04-23T02:52:41;3.75;;;2.75;;
26756;SDS011;23848;49.798;10.228;2023-04-23T02:55:12;3.92;;;3.08;;
26756;SDS011;23848;49.798;10.228;2023-04-23T02:57:55;5.68;;;3.13;;
26756;SDS011;23848;49.798;10.228;2023-04-23T03:00:31;3.83;;;2.70;;
26756;SDS011;23848;49.798;10.228;2023-04-23T03:03:04;5.07;;;3.05;;
26756;SDS011;23848;49.798;10.228;2023-04-23T03:05:41;3.80;;;2.78;;
26756;SDS011;23848;49.798;10.228;2023-04-23T03:08:19;5.43;;;3.20;;
26756;SDS011;23848;49.798;10.228;2023-04-23T03:10:50;5.72;;;3.15;;
26756;SDS011;23848;49.798;10.228;2023-04-23T03:13:21;6.20;;;3.22;;
26756;SDS011;23848;49.798;10.228;2023-04-23T03:15:51;4.80;;;2.92;;
26756;SDS011;23848;49.798;10.228;2023-04-23T03:18:30;7.00;;;2.88;;
26756;SDS011;23848;49.798;10.228;2023-04-23T03:20:58;6.20;;;3.33;;
26756;SDS011;23848;49.798;10.228;2023-04-23T03:23:35;3.97;;;3.10;;
26756;SDS011;23848;49.798;10.228;2023-04-23T03:26:07;5.35;;;3.53;;
26756;SDS011;23848;49.798;10.228;2023-04-23T03:28:44;3.63;;;2.90;;
26756;SDS011;23848;49.798;10.228;2023-04-23T03:31:18;4.65;;;3.40;;
26756;SDS011;23848;49.798;10.228;2023-04-23T03:33:51;4.25;;;2.80;;
26756;SDS011;23848;49.798;10.228;2023-04-23T03:36:24;5.55;;;2.97;;
26756;SDS011;23848;49.798;10.228;2023-04-23T03:38:59;4.13;;;2.95;;
26756;SDS011;23848;49.798;10.228;2023-04-23T03:41:37;4.57;;;3.25;;
26756;SDS011;23848;49.798;10.228;2023-04-23T03:44:10;5.88;;;3.05;;
26756;SDS011;23848;49.798;10.228;2023-04-23T03:46:46;4.10;;;2.67;;
26756;SDS011;23848;49.798;10.228;2023-04-23T03:49:21;4.00;;;2.90;;
26756;SDS011;23848;49.798;10.228;2023-04-23T03:51:55;5.50;;;3.08;;
26756;SDS011;23848;49.798;10.228;2023-04-23T03:54:40;4.28;;;3.10;;
26756;SDS011;23848;49.798;10.228;2023-04-23T03:57:28;5.47;;;3.10;;
26756;SDS011;23848;49.798;10.228;2023-04-23T04:00:04;4.90;;;3.33;;
26756;SDS011;23848;49.798;10.228;2023-04-23T04:02:43;6.38;;;3.30;;
26756;SDS011;23848;49.798;10.228;2023-04-23T04:05:23;5.50;;;3.60;;
26756;SDS011;23848;49.798;10.228;2023-04-23T04:07:57;5.55;;;3.63;;
26756;SDS011;23848;49.798;10.228;2023-04-23T04:10:32;6.18;;;3.67;;
26756;SDS011;23848;49.798;10.228;2023-04-23T04:13:03;4.55;;;3.53;;
26756;SDS011;23848;49.798;10.228;2023-04-23T04:15:38;5.90;;;3.80;;
26756;SDS011;23848;49.798;10.228;2023-04-23T04:18:06;7.75;;;4.10;;
26756;SDS011;23848;49.798;10.228;2023-04-23T04:20:48;5.20;;;4.10;;
26756;SDS011;23848;49.798;10.228;2023-04-23T04:23:44;7.28;;;4.43;;
26756;SDS011;23848;49.798;10.228;2023-04-23T04:30:27;5.03;;;3.97;;
26756;SDS011;23848;49.798;10.228;2023-04-23T04:37:00;5.47;;;4.30;;
26756;SDS011;23848;49.798;10.228;2023-04-23T04:40:55;6.38;;;4.43;;
26756;SDS011;23848;49.798;10.228;2023-04-23T04:45:09;5.07;;;3.83;;
26756;SDS011;23848;49.798;10.228;2023-04-23T04:48:30;5.70;;;4.32;;
26756;SDS011;23848;49.798;10.228;2023-04-23T05:05:39;5.88;;;4.70;;
26756;SDS011;23848;49.798;10.228;2023-04-23T05:09:03;5.53;;;4.20;;
26756;SDS011;23848;49.798;10.228;2023-04-23T05:11:50;5.07;;;3.95;;
26756;SDS011;23848;49.798;10.228;2023-04-23T05:14:20;6.60;;;4.82;;
26756;SDS011;23848;49.798;10.228;2023-04-23T05:16:52;6.82;;;4.50;;
26756;SDS011;23848;49.798;10.228;2023-04-23T05:19:23;6.88;;;4.80;;
26756;SDS011;23848;49.798;10.228;2023-04-23T05:22:01;7.97;;;4.63;;
26756;SDS011;23848;49.798;10.228;2023-04-23T05:24:44;7.78;;;4.43;;
26756;SDS011;23848;49.798;10.228;2023-04-23T05:27:32;7.07;;;5.28;;
26756;SDS011;23848;49.798;10.228;2023-04-23T05:30:10;6.45;;;4.85;;
26756;SDS011;23848;49.798;10.228;2023-04-23T05:35:28;5.13;;;4.13;;
26756;SDS011;23848;49.798;10.228;2023-04-23T05:38:07;5.13;;;4.00;;
26756;SDS011;23848;49.798;10.228;2023-04-23T05:40:41;5.90;;;4.43;;
26756;SDS011;23848;49.798;10.228;2023-04-23T05:43:13;6.43;;;4.50;;
26756;SDS011;23848;49.798;10.228;2023-04-23T05:45:43;6.65;;;4.45;;
26756;SDS011;23848;49.798;10.228;2023-04-23T05:48:16;5.88;;;4.13;;
26756;SDS011;23848;49.798;10.228;2023-04-23T05:50:47;6.28;;;4.43;;
26756;SDS011;23848;49.798;10.228;2023-04-23T05:53:18;7.90;;;4.90;;
26756;SDS011;23848;49.798;10.228;2023-04-23T05:56:04;4.82;;;4.13;;
26756;SDS011;23848;49.798;10.228;2023-04-23T05:58:39;7.93;;;4.47;;
26756;SDS011;23848;49.798;10.228;2023-04-23T06:01:11;5.43;;;4.22;;
26756;SDS011;23848;49.798;10.228;2023-04-23T06:03:45;5.82;;;4.05;;
26756;SDS011;23848;49.798;10.228;2023-04-23T06:06:15;5.32;;;4.03;;
26756;SDS011;23848;49.798;10.228;2023-04-23T06:08:47;5.85;;;3.83;;
26756;SDS011;23848;49.798;10.228;2023-04-23T06:11:19;5.00;;;4.03;;
26756;SDS011;23848;49.798;10.228;2023-04-23T06:13:50;4.70;;;3.90;;
26756;SDS011;23848;49.798;10.228;2023-04-23T06:16:22;6.25;;;4.32;;
26756;SDS011;23848;49.798;10.228;2023-04-23T06:18:54;6.63;;;4.80;;
26756;SDS011;23848;49.798;10.228;2023-04-23T06:21:35;6.50;;;3.72;;
26756;SDS011;23848;49.798;10.228;2023-04-23T06:24:06;4.82;;;4.07;;
26756;SDS011;23848;49.798;10.228;2023-04-23T06:26:34;6.00;;;4.07;;
26756;SDS011;23848;49.798;10.228;2023-04-23T06:29:05;4.57;;;3.72;;
26756;SDS011;23848;49.798;10.228;2023-04-23T06:34:32;5.10;;;3.80;;
26756;SDS011;23848;49.798;10.228;2023-04-23T06:37:27;5.30;;;3.92;;
26756;SDS011;23848;49.798;10.228;2023-04-23T06:40:01;4.80;;;3.30;;
26756;SDS011;23848;49.798;10.228;2023-04-23T06:42:30;5.32;;;3.72;;
26756;SDS011;23848;49.798;10.228;2023-04-23T06:45:16;4.25;;;3.50;;
26756;SDS011;23848;49.798;10.228;2023-04-23T06:47:48;4.40;;;3.20;;
26756;SDS011;23848;49.798;10.228;2023-04-23T06:50:16;4.78;;;3.35;;
26756;SDS011;23848;49.798;10.228;2023-04-23T06:52:45;4.80;;;3.47;;
26756;SDS011;23848;49.798;10.228;2023-04-23T06:55:15;3.95;;;3.10;;
26756;SDS011;23848;49.798;10.228;2023-04-23T06:57:44;5.70;;;3.30;;
26756;SDS011;23848;49.798;10.228;2023-04-23T07:00:15;4.82;;;3.60;;
26756;SDS011;23848;49.798;10.228;2023-04-23T07:02:44;4.57;;;3.25;;
26756;SDS011;23848;49.798;10.228;2023-04-23T07:05:17;4.50;;;3.20;;
26756;SDS011;23848;49.798;10.228;2023-04-23T07:08:02;4.35;;;3.20;;
26756;SDS011;23848;49.798;10.228;2023-04-23T07:10:35;5.18;;;2.80;;
26756;SDS011;23848;49.798;10.228;2023-04-23T07:13:06;3.65;;;2.80;;
26756;SDS011;23848;49.798;10.228;2023-04-23T07:15:37;3.90;;;2.83;;
26756;SDS011;23848;49.798;10.228;2023-04-23T07:18:10;6.47;;;3.17;;
26756;SDS011;23848;49.798;10.228;2023-04-23T07:20:45;3.88;;;2.85;;
26756;SDS011;23848;49.798;10.228;2023-04-23T07:23:17;5.25;;;2.88;;
26756;SDS011;23848;49.798;10.228;2023-04-23T07:25:48;3.13;;;2.33;;
26756;SDS011;23848;49.798;10.228;2023-04-23T07:28:16;2.97;;;2.03;;
26756;SDS011;23848;49.798;10.228;2023-04-23T07:30:45;4.53;;;2.40;;
26756;SDS011;23848;49.798;10.228;2023-04-23T07:33:17;3.72;;;2.60;;
26756;SDS011;23848;49.798;10.228;2023-04-23T07:35:52;3.97;;;2.73;;
26756;SDS011;23848;49.798;10.228;2023-04-23T07:38:30;3.65;;;2.70;;
26756;SDS011;23848;49.798;10.228;2023-04-23T07:41:28;4.00;;;2.40;;
26756;SDS011;23848;49.798;10.228;2023-04-23T07:44:36;4.00;;;2.47;;
26756;SDS011;23848;49.798;10.228;2023-04-23T07:47:07;3.35;;;2.50;;
26756;SDS011;23848;49.798;10.228;2023-04-23T07:50:16;3.75;;;2.30;;
26756;SDS011;23848;49.798;10.228;2023-04-23T07:52:54;4.88;;;2.50;;
26756;SDS011;23848;49.798;10.228;2023-04-23T07:55:30;2.95;;;2.22;;
26756;SDS011;23848;49.798;10.228;2023-04-23T07:58:03;2.95;;;2.05;;
26756;SDS011;23848;49.798;10.228;2023-04-23T08:00:36;3.85;;;2.10;;
26756;SDS011;23848;49.798;10.228;2023-04-23T08:03:26;2.90;;;2.00;;
26756;SDS011;23848;49.798;10.228;2023-04-23T08:05:55;3.65;;;2.40;;
26756;SDS011;23848;49.798;10.228;2023-04-23T08:08:27;2.70;;;1.85;;
26756;SDS011;23848;49.798;10.228;2023-04-23T08:10:57;4.40;;;2.47;;
26756;SDS011;23848;49.798;10.228;2023-04-23T08:13:29;3.72;;;2.40;;
26756;SDS011;23848;49.798;10.228;2023-04-23T08:15:57;3.00;;;2.25;;
26756;SDS011;23848;49.798;10.228;2023-04-23T08:18:27;3.42;;;2.10;;
26756;SDS011;23848;49.798;10.228;2023-04-23T08:21:02;3.83;;;2.05;;
26756;SDS011;23848;49.798;10.228;2023-04-23T08:23:42;3.10;;;2.00;;
26756;SDS011;23848;49.798;10.228;2023-04-23T08:26:10;3.45;;;2.15;;
26756;SDS011;23848;49.798;10.228;2023-04-23T08:28:39;3.10;;;1.95;;
26756;SDS011;23848;49.798;10.228;2023-04-23T08:31:08;3.55;;;1.80;;
26756;SDS011;23848;49.798;10.228;2023-04-23T08:33:51;3.67;;;2.27;;
26756;SDS011;23848;49.798;10.228;2023-04-23T08:36:20;3.17;;;2.00;;
26756;SDS011;23848;49.798;10.228;2023-04-23T08:38:50;3.42;;;2.30;;
26756;SDS011;23848;49.798;10.228;2023-04-23T08:41:18;3.60;;;2.08;;
26756;SDS011;23848;49.798;10.228;2023-04-23T08:43:50;4.13;;;2.47;;
26756;SDS011;23848;49.798;10.228;2023-04-23T08:46:27;2.83;;;2.00;;
26756;SDS011;23848;49.798;10.228;2023-04-23T08:49:00;4.63;;;2.00;;
26756;SDS011;23848;49.798;10.228;2023-04-23T08:51:30;3.25;;;1.90;;
26756;SDS011;23848;49.798;10.228;2023-04-23T08:54:04;2.45;;;1.60;;
26756;SDS011;23848;49.798;10.228;2023-04-23T08:56:38;2.75;;;2.13;;
26756;SDS011;23848;49.798;10.228;2023-04-23T08:59:08;3.15;;;1.90;;
26756;SDS011;23848;49.798;10.228;2023-04-23T09:01:39;3.00;;;1.90;;
26756;SDS011;23848;49.798;10.228;2023-04-23T09:04:09;2.53;;;1.63;;
26756;SDS011;23848;49.798;10.228;2023-04-23T09:06:42;2.88;;;1.88;;
26756;SDS011;23848;49.798;10.228;2023-04-23T09:09:15;2.50;;;1.63;;
26756;SDS011;23848;49.798;10.228;2023-04-23T09:11:51;2.50;;;1.50;;
26756;SDS011;23848;49.798;10.228;2023-04-23T09:14:23;3.20;;;1.67;;
26756;SDS011;23848;49.798;10.228;2023-04-23T09:16:53;2.65;;;1.90;;
26756;SDS011;23848;49.798;10.228;2023-04-23T09:19:22;3.50;;;2.03;;
26756;SDS011;23848;49.798;10.228;2023-04-23T09:21:57;2.97;;;1.90;;
26756;SDS011;23848;49.798;10.228;2023-04-23T09:24:29;2.85;;;2.28;;
26756;SDS011;23848;49.798;10.228;2023-04-23T09:26:57;3.13;;;1.85;;
26756;SDS011;23848;49.798;10.228;2023-04-23T09:29:25;2.75;;;1.83;;
26756;SDS011;23848;49.798;10.228;2023-04-23T09:31:54;3.50;;;1.90;;
26756;SDS011;23848;49.798;10.228;2023-04-23T09:34:33;4.35;;;2.08;;
26756;SDS011;23848;49.798;10.228;2023-04-23T09:37:04;3.45;;;2.10;;
26756;SDS011;23848;49.798;10.228;2023-04-23T09:39:41;3.42;;;1.98;;
26756;SDS011;23848;49.798;10.228;2023-04-23T09:42:09;2.78;;;1.98;;
26756;SDS011;23848;49.798;10.228;2023-04-23T09:44:39;3.90;;;2.00;;
26756;SDS011;23848;49.798;10.228;2023-04-23T09:47:17;4.03;;;2.08;;
26756;SDS011;23848;49.798;10.228;2023-04-23T09:49:48;2.95;;;1.88;;
26756;SDS011;23848;49.798;10.228;2023-04-23T09:52:17;3.55;;;2.20;;
26756;SDS011;23848;49.798;10.228;2023-04-23T09:54:48;3.08;;;1.95;;
26756;SDS011;23848;49.798;10.228;2023-04-23T09:57:18;3.80;;;2.55;;
26756;SDS011;23848;49.798;10.228;2023-04-23T09:59:47;3.35;;;2.10;;
26756;SDS011;23848;49.798;10.228;2023-04-23T10:02:28;3.40;;;2.13;;
26756;SDS011;23848;49.798;10.228;2023-04-23T10:05:12;3.58;;;2.30;;
26756;SDS011;23848;49.798;10.228;2023-04-23T10:10:19;3.10;;;2.20;;
26756;SDS011;23848;49.798;10.228;2023-04-23T10:12:47;4.00;;;1.90;;
26756;SDS011;23848;49.798;10.228;2023-04-23T10:15:20;4.28;;;2.00;;
26756;SDS011;23848;49.798;10.228;2023-04-23T10:17:53;2.75;;;2.00;;
26756;SDS011;23848;49.798;10.228;2023-04-23T10:20:22;4.55;;;2.08;;
26756;SDS011;23848;49.798;10.228;2023-04-23T10:22:51;2.72;;;1.90;;
26756;SDS011;23848;49.798;10.228;2023-04-23T10:25:23;2.70;;;1.98;;
26756;SDS011;23848;49.798;10.228;2023-04-23T10:27:52;2.58;;;1.80;;
26756;SDS011;23848;49.798;10.228;2023-04-23T10:30:22;3.08;;;1.73;;
26756;SDS011;23848;49.798;10.228;2023-04-23T10:32:51;3.22;;;1.88;;
26756;SDS011;23848;49.798;10.228;2023-04-23T10:35:20;2.83;;;2.00;;
26756;SDS011;23848;49.798;10.228;2023-04-23T10:37:48;2.70;;;1.63;;
26756;SDS011;23848;49.798;10.228;2023-04-23T10:40:18;2.50;;;1.75;;
26756;SDS011;23848;49.798;10.228;2023-04-23T10:42:53;4.68;;;2.55;;
26756;SDS011;23848;49.798;10.228;2023-04-23T10:45:22;3.33;;;2.45;;
26756;SDS011;23848;49.798;10.228;2023-04-23T10:47:51;4.25;;;1.92;;
26756;SDS011;23848;49.798;10.228;2023-04-23T10:50:22;3.83;;;2.47;;
26756;SDS011;23848;49.798;10.228;2023-04-23T10:52:52;3.05;;;2.00;;
26756;SDS011;23848;49.798;10.228;2023-04-23T10:55:23;2.50;;;1.67;;
26756;SDS011;23848;49.798;10.228;2023-04-23T10:57:58;2.78;;;1.92;;
26756;SDS011;23848;49.798;10.228;2023-04-23T11:00:29;4.20;;;2.28;;
26756;SDS011;23848;49.798;10.228;2023-04-23T11:03:28;3.20;;;1.77;;
26756;SDS011;23848;49.798;10.228;2023-04-23T11:06:00;2.92;;;1.80;;
26756;SDS011;23848;49.798;10.228;2023-04-23T11:08:29;4.53;;;2.63;;
26756;SDS011;23848;49.798;10.228;2023-04-23T11:10:59;5.15;;;2.28;;
26756;SDS011;23848;49.798;10.228;2023-04-23T11:13:29;2.75;;;1.33;;
26756;SDS011;23848;49.798;10.228;2023-04-23T11:16:13;2.58;;;1.55;;
26756;SDS011;23848;49.798;10.228;2023-04-23T11:18:53;2.45;;;1.65;;
26756;SDS011;23848;49.798;10.228;2023-04-23T11:24:28;2.40;;;1.40;;
26756;SDS011;23848;49.798;10.228;2023-04-23T11:26:58;3.17;;;1.40;;
26756;SDS011;23848;49.798;10.228;2023-04-23T11:29:28;2.33;;;1.20;;
26756;SDS011;23848;49.798;10.228;2023-04-23T11:31:56;5.28;;;1.70;;
26756;SDS011;23848;49.798;10.228;2023-04-23T11:34:29;2.20;;;1.40;;
26756;SDS011;23848;49.798;10.228;2023-04-23T11:36:58;3.13;;;1.80;;
26756;SDS011;23848;49.798;10.228;2023-04-23T11:39:30;3.03;;;1.33;;
26756;SDS011;23848;49.798;10.228;2023-04-23T11:41:59;3.38;;;1.40;;
26756;SDS011;23848;49.798;10.228;2023-04-23T11:44:30;2.00;;;1.20;;
26756;SDS011;23848;49.798;10.228;2023-04-23T11:46:59;2.63;;;1.30;;
26756;SDS011;23848;49.798;10.228;2023-04-23T11:49:28;2.58;;;1.30;;
26756;SDS011;23848;49.798;10.228;2023-04-23T11:52:00;2.20;;;1.35;;
26756;SDS011;23848;49.798;10.228;2023-04-23T11:54:31;3.20;;;1.30;;
26756;SDS011;23848;49.798;10.228;2023-04-23T11:57:02;2.35;;;1.23;;
26756;SDS011;23848;49.798;10.228;2023-04-23T12:02:22;1.75;;;1.15;;
26756;SDS011;23848;49.798;10.228;2023-04-23T12:04:51;2.22;;;1.20;;
26756;SDS011;23848;49.798;10.228;2023-04-23T12:07:30;1.95;;;1.10;;
26756;SDS011;23848;49.798;10.228;2023-04-23T12:09:59;2.58;;;1.27;;
26756;SDS011;23848;49.798;10.228;2023-04-23T12:12:31;1.60;;;1.00;;
26756;SDS011;23848;49.798;10.228;2023-04-23T12:17:35;2.28;;;1.10;;
26756;SDS011;23848;49.798;10.228;2023-04-23T12:20:05;2.30;;;1.00;;
26756;SDS011;23848;49.798;10.228;2023-04-23T12:22:41;2.20;;;1.08;;
26756;SDS011;23848;49.798;10.228;2023-04-23T12:25:09;3.40;;;1.05;;
26756;SDS011;23848;49.798;10.228;2023-04-23T12:27:38;1.85;;;1.17;;
26756;SDS011;23848;49.798;10.228;2023-04-23T12:30:14;3.85;;;1.40;;
26756;SDS011;23848;49.798;10.228;2023-04-23T12:32:43;2.45;;;1.35;;
26756;SDS011;23848;49.798;10.228;2023-04-23T12:35:11;2.28;;;0.90;;
26756;SDS011;23848;49.798;10.228;2023-04-23T12:37:39;1.80;;;1.00;;
26756;SDS011;23848;49.798;10.228;2023-04-23T12:40:08;3.10;;;1.30;;
26756;SDS011;23848;49.798;10.228;2023-04-23T12:42:37;2.17;;;1.10;;
26756;SDS011;23848;49.798;10.228;2023-04-23T12:45:06;2.70;;;1.05;;
26756;SDS011;23848;49.798;10.228;2023-04-23T12:47:38;2.13;;;1.20;;
26756;SDS011;23848;49.798;10.228;2023-04-23T12:50:06;1.80;;;0.98;;
26756;SDS011;23848;49.798;10.228;2023-04-23T12:52:35;2.40;;;1.13;;
26756;SDS011;23848;49.798;10.228;2023-04-23T12:55:07;2.67;;;1.40;;
26756;SDS011;23848;49.798;10.228;2023-04-23T12:57:35;2.17;;;1.25;;
26756;SDS011;23848;49.798;10.228;2023-04-23T13:00:04;2.08;;;1.20;;
26756;SDS011;23848;49.798;10.228;2023-04-23T13:02:34;1.73;;;1.00;;
26756;SDS011;23848;49.798;10.228;2023-04-23T13:05:05;2.00;;;1.20;;
26756;SDS011;23848;49.798;10.228;2023-04-23T13:07:33;2.10;;;1.00;;
26756;SDS011;23848;49.798;10.228;2023-04-23T13:10:02;2.08;;;1.15;;
26756;SDS011;23848;49.798;10.228;2023-04-23T13:12:30;2.78;;;1.08;;
26756;SDS011;23848;49.798;10.228;2023-04-23T13:14:59;1.70;;;1.02;;
26756;SDS011;23848;49.798;10.228;2023-04-23T13:17:27;2.58;;;1.02;;
26756;SDS011;23848;49.798;10.228;2023-04-23T13:19:56;1.70;;;1.00;;
26756;SDS011;23848;49.798;10.228;2023-04-23T13:22:30;2.17;;;1.10;;
26756;SDS011;23848;49.798;10.228;2023-04-23T13:25:13;2.30;;;0.88;;
26756;SDS011;23848;49.798;10.228;2023-04-23T13:27:52;2.03;;;1.10;;
26756;SDS011;23848;49.798;10.228;2023-04-23T13:30:55;2.00;;;1.00;;
26756;SDS011;23848;49.798;10.228;2023-04-23T13:33:43;2.35;;;1.35;;
26756;SDS011;23848;49.798;10.228;2023-04-23T13:36:24;3.45;;;1.17;;
26756;SDS011;23848;49.798;10.228;2023-04-23T13:38:59;2.28;;;0.90;;
26756;SDS011;23848;49.798;10.228;2023-04-23T13:41:27;1.80;;;0.93;;
26756;SDS011;23848;49.798;10.228;2023-04-23T13:43:56;2.58;;;1.08;;
26756;SDS011;23848;49.798;10.228;2023-04-23T13:46:24;2.22;;;0.95;;
26756;SDS011;23848;49.798;10.228;2023-04-23T13:48:53;2.00;;;1.00;;
26756;SDS011;23848;49.798;10.228;2023-04-23T13:51:21;2.53;;;0.82;;
26756;SDS011;23848;49.798;10.228;2023-04-23T13:54:02;1.95;;;0.90;;
26756;SDS011;23848;49.798;10.228;2023-04-23T13:56:32;2.22;;;1.20;;
26756;SDS011;23848;49.798;10.228;2023-04-23T13:59:04;1.50;;;0.82;;
26756;SDS011;23848;49.798;10.228;2023-04-23T14:01:44;2.17;;;1.08;;
26756;SDS011;23848;49.798;10.228;2023-04-23T14:04:15;3.00;;;0.90;;
26756;SDS011;23848;49.798;10.228;2023-04-23T14:06:46;1.40;;;0.90;;
26756;SDS011;23848;49.798;10.228;2023-04-23T14:09:18;1.48;;;0.80;;
26756;SDS011;23848;49.798;10.228;2023-04-23T14:11:47;1.98;;;1.00;;
26756;SDS011;23848;49.798;10.228;2023-04-23T14:14:16;1.67;;;0.88;;
26756;SDS011;23848;49.798;10.228;2023-04-23T14:16:44;2.22;;;1.13;;
26756;SDS011;23848;49.798;10.228;2023-04-23T14:19:13;2.08;;;0.73;;
26756;SDS011;23848;49.798;10.228;2023-04-23T14:21:42;2.25;;;1.00;;
26756;SDS011;23848;49.798;10.228;2023-04-23T14:24:21;1.73;;;1.05;;
26756;SDS011;23848;49.798;10.228;2023-04-23T14:26:57;1.80;;;0.90;;
26756;SDS011;23848;49.798;10.228;2023-04-23T14:29:34;2.65;;;1.00;;
26756;SDS011;23848;49.798;10.228;2023-04-23T14:32:07;1.75;;;0.80;;
26756;SDS011;23848;49.798;10.228;2023-04-23T14:34:37;1.52;;;0.80;;
26756;SDS011;23848;49.798;10.228;2023-04-23T14:37:06;2.20;;;1.00;;
26756;SDS011;23848;49.798;10.228;2023-04-23T14:39:39;1.48;;;0.70;;
26756;SDS011;23848;49.798;10.228;2023-04-23T14:42:21;1.50;;;0.80;;
26756;SDS011;23848;49.798;10.228;2023-04-23T14:45:03;3.28;;;0.80;;
26756;SDS011;23848;49.798;10.228;2023-04-23T14:47:33;1.58;;;0.80;;
26756;SDS011;23848;49.798;10.228;2023-04-23T14:50:09;1.70;;;0.80;;
26756;SDS011;23848;49.798;10.228;2023-04-23T14:52:46;1.98;;;0.80;;
26756;SDS011;23848;49.798;10.228;2023-04-23T14:55:16;2.13;;;0.70;;
26756;SDS011;23848;49.798;10.228;2023-04-23T14:57:51;1.20;;;0.70;;
26756;SDS011;23848;49.798;10.228;2023-04-23T15:00:20;1.25;;;0.73;;
26756;SDS011;23848;49.798;10.228;2023-04-23T15:02:49;1.33;;;0.75;;
26756;SDS011;23848;49.798;10.228;2023-04-23T15:05:17;1.42;;;0.70;;
26756;SDS011;23848;49.798;10.228;2023-04-23T15:07:46;0.80;;;0.40;;
26756;SDS011;23848;49.798;10.228;2023-04-23T15:10:14;0.95;;;0.60;;
26756;SDS011;23848;49.798;10.228;2023-04-23T15:12:50;1.50;;;0.73;;
26756;SDS011;23848;49.798;10.228;2023-04-23T15:15:25;2.55;;;0.60;;
26756;SDS011;23848;49.798;10.228;2023-04-23T15:18:09;2.50;;;0.85;;
26756;SDS011;23848;49.798;10.228;2023-04-23T15:20:38;0.75;;;0.50;;
26756;SDS011;23848;49.798;10.228;2023-04-23T15:23:07;1.20;;;0.80;;
26756;SDS011;23848;49.798;10.228;2023-04-23T15:25:36;1.08;;;0.65;;
26756;SDS011;23848;49.798;10.228;2023-04-23T15:28:06;1.27;;;0.80;;
26756;SDS011;23848;49.798;10.228;2023-04-23T15:30:35;1.95;;;0.90;;
26756;SDS011;23848;49.798;10.228;2023-04-23T15:33:05;1.55;;;0.65;;
26756;SDS011;23848;49.798;10.228;2023-04-23T15:35:33;2.25;;;0.85;;
26756;SDS011;23848;49.798;10.228;2023-04-23T15:38:01;1.75;;;0.75;;
26756;SDS011;23848;49.798;10.228;2023-04-23T15:40:32;1.17;;;0.70;;
26756;SDS011;23848;49.798;10.228;2023-04-23T15:43:10;2.17;;;0.95;;
26756;SDS011;23848;49.798;10.228;2023-04-23T15:45:40;1.70;;;0.82;;
26756;SDS011;23848;49.798;10.228;2023-04-23T15:48:11;1.25;;;0.60;;